Time;durP1;ratioP1;P1;durP2;ratioP2;P2;SDS_P1;SDS_P2;PMS_P1;PMS_P2;Temp;Humidity;BMP_temperature;BMP_pressure;BME280_temperature;BME280_humidity;BME280_pressure;Samples;Min_cycle;Max_cycle;Signal;HPM_P1;HPM_P2
2023/08/15 00:01:43;;;;;;;5.20;3.47;;;;;;;18.36;100.00;101236.75;4968508;28;20062;-76
2023/08/15 00:04:10;;;;;;;8.88;4.70;;;;;;;18.34;100.00;101233.22;4919030;28;20501;-76
2023/08/15 00:06:37;;;;;;;6.88;4.53;;;;;;;18.31;100.00;101235.03;4984830;28;20063;-76
2023/08/15 00:09:05;;;;;;;6.13;5.20;;;;;;;18.30;100.00;101229.75;4969561;28;20057;-76
2023/08/15 00:11:32;;;;;;;11.27;4.57;;;;;;;18.29;100.00;101225.31;5000662;28;20722;-76
2023/08/15 00:14:00;;;;;;;7.68;5.38;;;;;;;18.29;100.00;101228.00;4970646;28;20050;-75
2023/08/15 00:16:27;;;;;;;8.23;6.35;;;;;;;18.27;100.00;101222.69;4982153;28;20062;-76
2023/08/15 00:18:55;;;;;;;7.47;5.53;;;;;;;18.27;100.00;101219.16;4969453;28;20050;-76
2023/08/15 00:21:22;;;;;;;8.68;5.63;;;;;;;18.27;100.00;101222.69;4942302;28;20383;-76
2023/08/15 00:23:49;;;;;;;10.80;5.43;;;;;;;18.27;100.00;101241.34;4972071;28;20062;-77
2023/08/15 00:26:17;;;;;;;8.82;5.82;;;;;;;18.27;100.00;101230.69;4972365;28;20058;-76
2023/08/15 00:28:44;;;;;;;7.90;4.88;;;;;;;18.27;100.00;101224.47;4972162;28;20420;-76
2023/08/15 00:31:11;;;;;;;6.15;5.25;;;;;;;18.25;100.00;101224.50;4974376;28;20050;-76
2023/08/15 00:33:39;;;;;;;7.93;5.13;;;;;;;18.24;100.00;101217.44;4970853;28;20047;-77
2023/08/15 00:36:06;;;;;;;12.27;5.45;;;;;;;18.25;100.00;101223.63;4924312;28;20042;-76
2023/08/15 00:38:34;;;;;;;8.43;5.55;;;;;;;18.23;100.00;101214.78;4954084;28;20047;-76
2023/08/15 00:41:02;;;;;;;8.48;6.10;;;;;;;18.23;100.00;101214.78;4972413;28;20385;-76
2023/08/15 00:43:29;;;;;;;6.32;5.03;;;;;;;18.21;100.00;101222.81;4971356;28;20500;-76
2023/08/15 00:45:59;;;;;;;9.80;6.10;;;;;;;18.19;100.00;101226.44;4972131;28;20077;-76
2023/08/15 00:48:29;;;;;;;;;;;;;;;18.15;100.00;101222.06;4971948;28;20050;-76
2023/08/15 00:50:59;;;;;;;12.82;5.95;;;;;;;18.12;100.00;101217.69;4941984;28;19922;-76
2023/08/15 00:53:29;;;;;;;8.35;5.75;;;;;;;18.08;100.00;101216.00;4982113;28;20055;-77
2023/08/15 00:55:57;;;;;;;11.32;6.50;;;;;;;18.07;100.00;101211.56;4994433;28;20050;-76
2023/08/15 00:58:28;;;;;;;7.50;6.25;;;;;;;18.04;100.00;101214.34;4991735;28;20046;-76
2023/08/15 01:00:56;;;;;;;7.93;6.00;;;;;;;18.01;100.00;101203.72;4993496;28;20050;-76
2023/08/15 01:03:24;;;;;;;11.20;6.90;;;;;;;17.99;100.00;101206.41;4991427;28;20045;-76
2023/08/15 01:05:53;;;;;;;16.23;7.05;;;;;;;17.96;100.00;101205.59;4990646;28;20463;-76
2023/08/15 01:08:20;;;;;;;11.23;7.03;;;;;;;17.96;100.00;101208.25;4971370;28;20054;-76
2023/08/15 01:10:48;;;;;;;8.88;6.22;;;;;;;17.92;100.00;101200.34;4975072;28;20046;-76
2023/08/15 01:13:46;;;;;;;11.45;7.53;;;;;;;17.92;100.00;101195.03;5007240;28;20057;-76
2023/08/15 01:16:18;;;;;;;12.45;7.20;;;;;;;17.92;100.00;101189.69;4985178;28;20066;-76
2023/08/15 01:18:54;;;;;;;9.50;6.85;;;;;;;17.91;100.00;101189.72;4992888;28;20061;-76
2023/08/15 01:21:27;;;;;;;9.25;6.68;;;;;;;17.90;100.00;101193.28;4991613;28;20046;-76
2023/08/15 01:23:56;;;;;;;10.40;7.07;;;;;;;17.90;100.00;101193.28;4969394;28;20077;-76
2023/08/15 01:26:25;;;;;;;14.70;7.20;;;;;;;17.90;100.00;101193.28;4974489;28;20049;-75
2023/08/15 01:28:52;;;;;;;10.13;6.95;;;;;;;17.90;100.00;101193.28;4975388;28;20320;-76
2023/08/15 01:31:44;;;;;;;14.43;7.53;;;;;;;17.92;100.00;101186.16;4992045;28;20050;-76
2023/08/15 01:34:24;;;;;;;10.13;7.40;;;;;;;17.91;100.00;101190.59;4974333;28;20411;-76
2023/08/15 01:37:00;;;;;;;9.10;6.80;;;;;;;17.93;100.00;101178.09;4974237;28;20046;-76
2023/08/15 01:39:29;;;;;;;9.00;6.70;;;;;;;17.93;100.00;101175.44;4960699;28;20058;-76
2023/08/15 01:41:59;;;;;;;13.82;7.55;;;;;;;17.94;100.00;101176.34;4974856;28;20042;-75
2023/08/15 01:44:29;;;;;;;13.15;7.88;;;;;;;17.94;100.00;101179.00;4968026;28;20054;-75
2023/08/15 01:46:59;;;;;;;12.38;7.30;;;;;;;17.95;100.00;101178.06;4988286;28;20051;-75
2023/08/15 01:49:27;;;;;;;10.02;6.78;;;;;;;17.97;100.00;101184.25;4988315;28;20050;-76
2023/08/15 01:51:54;;;;;;;13.48;7.90;;;;;;;17.97;100.00;101183.38;4974132;28;20054;-76
2023/08/15 01:54:22;;;;;;;13.02;6.55;;;;;;;17.97;100.00;101184.25;4952065;28;20050;-76
2023/08/15 01:56:49;;;;;;;13.32;6.32;;;;;;;17.99;100.00;101178.88;5006046;28;20046;-76
2023/08/15 01:59:17;;;;;;;10.48;6.93;;;;;;;17.98;100.00;101179.81;5005480;28;20054;-75
2023/08/15 02:01:44;;;;;;;11.27;6.35;;;;;;;17.97;100.00;101180.72;4975150;28;20042;-76
2023/08/15 02:04:12;;;;;;;11.65;6.80;;;;;;;17.96;100.00;101176.28;5007087;28;20050;-76
2023/08/15 02:06:39;;;;;;;13.85;6.25;;;;;;;17.93;100.00;101167.44;4987839;28;20058;-76
2023/08/15 02:09:08;;;;;;;7.85;7.05;;;;;;;17.91;100.00;101163.94;4938916;28;20051;-76
2023/08/15 02:11:35;;;;;;;9.98;7.10;;;;;;;17.89;100.00;101156.88;4955556;28;20049;-76
2023/08/15 02:14:03;;;;;;;12.10;6.95;;;;;;;17.87;100.00;101162.25;4991384;28;20050;-76
2023/08/15 02:16:30;;;;;;;9.45;6.47;;;;;;;17.84;100.00;101151.63;4972046;28;20054;-76
2023/08/15 02:18:58;;;;;;;11.80;7.45;;;;;;;17.83;100.00;101152.53;4975618;28;20061;-77
2023/08/15 02:21:26;;;;;;;10.65;6.88;;;;;;;17.80;100.00;101160.59;4972634;28;20050;-77
2023/08/15 02:23:53;;;;;;;11.77;7.70;;;;;;;17.77;100.00;101152.69;5007798;28;20057;-77
2023/08/15 02:26:20;;;;;;;9.65;7.57;;;;;;;17.75;100.00;101151.84;4955259;28;20439;-76
2023/08/15 02:28:47;;;;;;;9.70;7.32;;;;;;;17.73;100.00;101145.63;4990566;28;20736;-76
2023/08/15 02:31:15;;;;;;;11.07;7.75;;;;;;;17.71;100.00;101142.13;4974742;28;20047;-77
2023/08/15 02:33:42;;;;;;;10.65;7.25;;;;;;;17.67;100.00;101143.97;4973441;28;20065;-76
2023/08/15 02:36:10;;;;;;;10.50;7.95;;;;;;;17.66;100.00;101144.03;4992747;28;20054;-75
2023/08/15 02:38:37;;;;;;;11.82;7.72;;;;;;;17.65;100.00;101150.25;4974963;28;20050;-76
2023/08/15 02:41:06;;;;;;;11.85;7.63;;;;;;;17.62;100.00;101143.22;4936719;28;20042;-76
2023/08/15 02:43:35;;;;;;;11.68;7.80;;;;;;;17.61;100.00;101132.59;4956476;28;20506;-76
2023/08/15 02:46:03;;;;;;;11.38;8.10;;;;;;;17.59;100.00;101143.28;4991854;28;20042;-76
2023/08/15 02:48:30;;;;;;;12.55;7.82;;;;;;;17.58;100.00;101140.63;4988885;28;20050;-76
2023/08/15 02:50:57;;;;;;;12.63;8.27;;;;;;;17.57;100.00;101134.44;4991149;28;20050;-75
2023/08/15 02:53:25;;;;;;;9.00;7.35;;;;;;;17.56;100.00;101134.47;4971830;28;20467;-76
2023/08/15 02:55:52;;;;;;;12.95;8.30;;;;;;;17.54;100.00;101138.06;4939221;28;20050;-76
2023/08/15 02:58:19;;;;;;;13.02;8.02;;;;;;;17.56;100.00;101142.47;4972903;28;20050;-76
2023/08/15 03:00:47;;;;;;;9.88;8.07;;;;;;;17.54;100.00;101151.38;4994603;28;20042;-76
2023/08/15 03:03:14;;;;;;;14.93;7.25;;;;;;;17.53;100.00;101152.28;4982933;28;20058;-76
2023/08/15 03:05:42;;;;;;;12.38;8.68;;;;;;;17.53;100.00;101154.94;4987233;28;20054;-76
2023/08/15 03:08:10;;;;;;;12.25;8.35;;;;;;;17.54;100.00;101151.38;4990414;28;20053;-76
2023/08/15 03:10:39;;;;;;;11.32;8.57;;;;;;;17.53;100.00;101152.28;4950085;28;20115;-77
2023/08/15 03:13:06;;;;;;;11.98;8.35;;;;;;;17.53;100.00;101148.75;4989545;28;20050;-77
2023/08/15 03:15:36;;;;;;;10.35;8.32;;;;;;;17.53;100.00;101162.94;4986888;28;20042;-76
2023/08/15 03:18:03;;;;;;;14.95;8.90;;;;;;;17.53;100.00;101157.59;4973011;28;20046;-76
2023/08/15 03:20:31;;;;;;;13.63;8.35;;;;;;;17.52;100.00;101157.63;4986249;28;20054;-76
2023/08/15 03:22:59;;;;;;;13.50;8.88;;;;;;;17.52;100.00;101158.53;5005263;28;20046;-76
2023/08/15 03:25:26;;;;;;;9.98;8.00;;;;;;;17.52;100.00;101150.53;4922249;28;20458;-76
2023/08/15 03:27:54;;;;;;;10.63;8.00;;;;;;;17.53;100.00;101165.59;4988445;28;20050;-76
2023/08/15 03:30:22;;;;;;;10.50;8.60;;;;;;;17.53;100.00;101167.38;5004083;28;20054;-76
2023/08/15 03:32:50;;;;;;;18.17;9.45;;;;;;;17.53;100.00;101165.59;4970445;28;20664;-76
2023/08/15 03:35:18;;;;;;;13.02;9.20;;;;;;;17.53;100.00;101160.25;5005590;28;20400;-76
2023/08/15 03:37:48;;;;;;;12.80;8.50;;;;;;;17.55;100.00;101160.25;5005062;28;20058;-76
2023/08/15 03:40:16;;;;;;;13.35;9.90;;;;;;;17.54;100.00;101158.47;4981260;28;20050;-76
2023/08/15 03:42:43;;;;;;;11.15;8.50;;;;;;;17.53;100.00;101154.94;4990929;28;20043;-76
2023/08/15 03:45:11;;;;;;;12.75;8.55;;;;;;;17.54;100.00;101150.47;4990548;28;20057;-76
2023/08/15 03:47:38;;;;;;;16.92;8.20;;;;;;;17.54;100.00;101151.38;4956577;28;20511;-76
2023/08/15 03:50:06;;;;;;;15.02;8.63;;;;;;;17.55;100.00;101152.25;4958239;28;20042;-76
2023/08/15 03:52:35;;;;;;;13.43;9.30;;;;;;;17.56;100.00;101147.78;4971556;28;20043;-76
2023/08/15 03:55:04;;;;;;;13.32;9.02;;;;;;;17.56;100.00;101143.34;5003488;28;20066;-76
2023/08/15 03:57:33;;;;;;;13.80;8.90;;;;;;;17.56;100.00;101156.69;4953629;28;20050;-76
2023/08/15 04:00:01;;;;;;;13.55;9.45;;;;;;;17.58;100.00;101156.63;4976510;28;20062;-76
2023/08/15 04:02:39;;;;;;;16.90;9.27;;;;;;;17.58;100.00;101160.19;4977619;28;20057;-76
2023/08/15 04:05:07;;;;;;;13.02;9.00;;;;;;;17.58;100.00;101161.94;4978072;28;20054;-76
2023/08/15 04:07:34;;;;;;;12.52;10.52;;;;;;;17.60;100.00;101163.69;4974181;28;20054;-77
2023/08/15 04:10:01;;;;;;;16.27;10.90;;;;;;;17.61;100.00;101165.44;4976865;28;20121;-76
2023/08/15 04:12:30;;;;;;;17.13;11.30;;;;;;;17.62;100.00;101166.34;4938162;28;20057;-77
2023/08/15 04:14:57;;;;;;;15.15;10.43;;;;;;;17.64;100.00;101177.84;4993221;28;20039;-76
2023/08/15 04:17:25;;;;;;;17.77;10.70;;;;;;;17.62;100.00;101177.00;4975806;28;20058;-75
2023/08/15 04:19:52;;;;;;;16.88;11.60;;;;;;;17.63;100.00;101171.59;4976730;28;20054;-75
2023/08/15 04:22:20;;;;;;;12.93;10.68;;;;;;;17.63;100.00;101165.41;4990558;28;20050;-76
2023/08/15 04:24:48;;;;;;;18.70;11.50;;;;;;;17.66;100.00;101162.69;5006788;28;20066;-76
2023/08/15 04:27:15;;;;;;;15.32;12.27;;;;;;;17.65;100.00;101148.47;4972335;28;20054;-76
2023/08/15 04:29:43;;;;;;;16.85;11.70;;;;;;;17.67;100.00;101145.78;4959132;28;20923;-76
2023/08/15 04:32:10;;;;;;;15.45;11.68;;;;;;;17.69;100.00;101144.84;4958374;28;20050;-76
2023/08/15 04:34:38;;;;;;;17.23;11.75;;;;;;;17.71;100.00;101129.69;4989431;28;20121;-76
2023/08/15 04:37:05;;;;;;;18.13;11.20;;;;;;;17.73;100.00;101140.31;5008095;28;20504;-76
2023/08/15 04:39:33;;;;;;;16.30;12.20;;;;;;;17.76;100.00;101134.03;4973695;28;20058;-76
2023/08/15 04:42:01;;;;;;;13.50;12.10;;;;;;;17.77;100.00;101136.69;4977276;28;20492;-76
2023/08/15 04:44:28;;;;;;;14.60;10.90;;;;;;;17.78;100.00;101138.41;4951591;28;20045;-76
2023/08/15 04:46:55;;;;;;;13.00;11.25;;;;;;;17.79;100.00;101134.84;4975952;28;20054;-76
2023/08/15 04:49:23;;;;;;;15.50;11.07;;;;;;;17.81;100.00;101141.03;4975118;28;20051;-76
2023/08/15 04:51:51;;;;;;;14.25;11.60;;;;;;;17.82;100.00;101144.56;4971258;28;20050;-76
2023/08/15 04:54:18;;;;;;;19.33;12.23;;;;;;;17.83;100.00;101152.53;4955786;28;20059;-76
2023/08/15 04:56:46;;;;;;;12.85;11.20;;;;;;;17.84;100.00;101151.63;4970878;28;20051;-76
2023/08/15 04:59:15;;;;;;;22.08;12.52;;;;;;;17.86;100.00;101157.84;4939556;28;20507;-76
2023/08/15 05:01:42;;;;;;;13.30;10.88;;;;;;;17.86;100.00;101152.50;4972547;28;20042;-76
2023/08/15 05:04:10;;;;;;;17.80;12.32;;;;;;;17.88;100.00;101161.34;4973118;28;20051;-76
2023/08/15 05:06:40;;;;;;;16.13;12.88;;;;;;;17.89;100.00;101167.56;4968896;28;20058;-76
2023/08/15 05:09:07;;;;;;;18.60;11.63;;;;;;;17.89;100.00;101163.09;4956516;28;20054;-76
2023/08/15 05:11:35;;;;;;;14.43;10.40;;;;;;;17.90;100.00;101164.84;4969390;28;20083;-76
2023/08/15 05:14:02;;;;;;;15.55;11.90;;;;;;;17.92;100.00;101180.81;4940313;28;20046;-75
2023/08/15 05:16:30;;;;;;;19.05;11.48;;;;;;;17.92;100.00;101181.69;4954828;28;20050;-75
2023/08/15 05:18:58;;;;;;;16.23;10.98;;;;;;;17.95;100.00;101180.72;4955584;28;20065;-77
2023/08/15 05:21:26;;;;;;;19.95;11.18;;;;;;;17.97;100.00;101183.38;4953652;28;20500;-77
2023/08/15 05:23:53;;;;;;;18.23;12.07;;;;;;;17.98;100.00;101182.47;4988607;28;20047;-77
2023/08/15 05:26:20;;;;;;;18.33;11.40;;;;;;;17.99;100.00;101195.75;4957278;28;20531;-75
2023/08/15 05:28:48;;;;;;;16.77;11.52;;;;;;;18.00;100.00;101205.53;4942151;28;20047;-76
2023/08/15 05:31:15;;;;;;;22.10;11.85;;;;;;;18.01;100.00;101238.38;4987578;28;20069;-76
2023/08/15 05:33:42;;;;;;;14.90;11.75;;;;;;;18.00;100.00;101289.97;4968935;28;20039;-76
2023/08/15 05:36:10;;;;;;;17.98;12.40;;;;;;;17.97;100.00;101288.22;4955287;28;20042;-76
2023/08/15 05:38:37;;;;;;;15.60;12.68;;;;;;;17.96;100.00;101261.59;4968693;28;20085;-76
2023/08/15 05:41:05;;;;;;;19.50;9.93;;;;;;;17.97;100.00;101256.22;4970804;28;20515;-76
2023/08/15 05:43:32;;;;;;;11.77;9.07;;;;;;;17.99;100.00;101258.88;4925894;28;20057;-77
2023/08/15 05:45:59;;;;;;;11.88;8.57;;;;;;;18.02;100.00;101259.69;4984071;28;20050;-76
2023/08/15 05:48:29;;;;;;;12.30;9.13;;;;;;;18.08;100.00;101264.00;4936477;28;20077;-75
2023/08/15 05:50:57;;;;;;;12.60;8.50;;;;;;;18.13;100.00;101264.81;4971147;28;20389;-76
2023/08/15 05:53:24;;;;;;;16.27;8.98;;;;;;;18.19;100.00;101267.34;4954758;28;20062;-76
2023/08/15 05:55:51;;;;;;;12.35;8.23;;;;;;;18.23;100.00;101265.47;4970173;28;20417;-76
2023/08/15 05:58:19;;;;;;;14.15;8.57;;;;;;;18.26;100.00;101279.63;4975974;28;20055;-75
2023/08/15 06:00:46;;;;;;;12.13;7.85;;;;;;;18.33;100.00;101279.50;4950531;28;20063;-76
2023/08/15 06:03:14;;;;;;;13.85;9.40;;;;;;;18.37;100.00;101282.03;4972962;28;20046;-77
2023/08/15 06:05:41;;;;;;;13.20;8.50;;;;;;;18.40;100.00;101281.13;4971181;28;20543;-76
2023/08/15 06:08:08;;;;;;;10.82;7.80;;;;;;;18.42;100.00;101285.50;4973620;28;20050;-75
2023/08/15 06:10:36;;;;;;;16.15;7.00;;;;;;;18.44;100.00;101286.31;4971357;28;20054;-76
2023/08/15 06:13:03;;;;;;;15.15;7.30;;;;;;;18.46;100.00;101286.31;4974345;28;20041;-75
2023/08/15 06:15:31;;;;;;;12.15;7.45;;;;;;;18.48;100.00;101296.00;4947427;28;20056;-77
2023/08/15 06:17:58;;;;;;;9.27;6.03;;;;;;;18.49;100.00;101292.44;4979165;28;20053;-76
2023/08/15 06:20:26;;;;;;;7.45;6.10;;;;;;;18.50;100.00;101304.88;4972180;28;20050;-76
2023/08/15 06:22:53;;;;;;;9.93;6.53;;;;;;;18.51;100.00;101316.44;5006113;28;20070;-77
2023/08/15 06:25:20;;;;;;;10.00;7.00;;;;;;;18.48;100.00;101313.81;4972319;28;20053;-77
2023/08/15 06:27:48;;;;;;;13.93;7.38;;;;;;;18.45;100.00;101313.88;4990184;28;20046;-77
2023/08/15 06:30:15;;;;;;;7.50;6.57;;;;;;;18.43;100.00;101321.03;4963913;28;20073;-77
2023/08/15 06:32:45;;;;;;;12.10;6.68;;;;;;;18.43;100.00;101329.06;4959618;28;20050;-77
2023/08/15 06:35:13;;;;;;;12.00;7.03;;;;;;;18.44;100.00;101330.81;4988586;28;20061;-77
2023/08/15 06:37:40;;;;;;;14.23;7.55;;;;;;;18.48;100.00;101337.84;4985775;28;20069;-77
2023/08/15 06:40:08;;;;;;;10.57;7.53;;;;;;;18.51;100.00;101333.31;4972528;28;20427;-76
2023/08/15 06:42:36;;;;;;;11.55;6.45;;;;;;;18.55;100.00;101325.25;4970149;28;20061;-77
2023/08/15 06:45:11;;;;;;;11.02;7.22;;;;;;;18.62;100.00;101321.50;4972925;28;20038;-77
2023/08/15 06:47:39;;;;;;;12.60;6.28;;;;;;;18.70;100.00;101315.09;4961628;28;20066;-76
2023/08/15 06:50:08;;;;;;;10.20;5.90;;;;;;;18.82;100.00;101323.78;4972257;28;20042;-76
2023/08/15 06:52:35;;;;;;;8.35;5.25;;;;;;;18.99;100.00;101313.56;4969034;28;20058;-76
2023/08/15 06:55:03;;;;;;;14.52;5.70;;;;;;;19.18;100.00;101316.66;4968383;28;20062;-77
2023/08/15 06:57:31;;;;;;;6.40;4.53;;;;;;;19.32;100.00;101327.00;4966015;28;20496;-76
2023/08/15 06:59:59;;;;;;;15.15;5.35;;;;;;;19.48;100.00;101324.78;4985713;28;20058;-77
2023/08/15 07:02:29;;;;;;;11.73;4.70;;;;;;;19.69;100.00;101326.00;4939412;28;20054;-78
2023/08/15 07:04:56;;;;;;;8.90;4.20;;;;;;;19.84;100.00;101328.28;4975045;28;20063;-77
2023/08/15 07:07:24;;;;;;;10.48;5.00;;;;;;;19.97;100.00;101327.97;4985184;28;20050;-77
2023/08/15 07:09:51;;;;;;;9.57;4.53;;;;;;;20.08;100.00;101325.88;4969494;28;20051;-77
2023/08/15 07:12:19;;;;;;;10.27;4.38;;;;;;;20.16;100.00;101333.66;4966612;28;20416;-77
2023/08/15 07:14:47;;;;;;;9.43;4.05;;;;;;;20.22;100.00;101334.34;4969500;28;20063;-77
2023/08/15 07:17:14;;;;;;;10.50;4.10;;;;;;;20.31;100.00;101335.03;4963227;28;20050;-77
2023/08/15 07:19:42;;;;;;;10.15;4.72;;;;;;;20.32;100.00;101336.75;4940360;28;20049;-77
2023/08/15 07:22:09;;;;;;;5.80;4.20;;;;;;;20.25;100.00;101341.44;4984680;28;20074;-77
2023/08/15 07:24:37;;;;;;;9.75;4.63;;;;;;;20.21;100.00;101346.00;4965142;28;20788;-77
2023/08/15 07:27:04;;;;;;;12.52;4.47;;;;;;;20.31;100.00;101359.09;5001415;28;20055;-77
2023/08/15 07:29:31;;;;;;;11.77;4.88;;;;;;;20.37;100.00;101354.44;4981294;28;20051;-77
2023/08/15 07:31:59;;;;;;;10.50;5.00;;;;;;;20.41;100.00;101357.91;4984143;28;20051;-77
2023/08/15 07:34:26;;;;;;;10.43;4.30;;;;;;;20.43;100.00;101354.28;4962385;28;20054;-78
2023/08/15 07:36:54;;;;;;;10.82;4.70;;;;;;;20.48;100.00;101362.16;4973753;28;20047;-76
2023/08/15 07:39:21;;;;;;;11.90;3.70;;;;;;;20.56;100.00;101365.47;4947505;29;20168;-77
2023/08/15 07:41:48;;;;;;;10.32;3.72;;;;;;;20.67;100.00;101367.88;4983656;28;20051;-77
2023/08/15 07:44:16;;;;;;;13.70;4.60;;;;;;;20.73;100.00;101370.34;4984169;28;20057;-77
2023/08/15 07:46:43;;;;;;;8.88;3.92;;;;;;;20.78;100.00;101373.75;4973640;28;20052;-77
2023/08/15 07:49:11;;;;;;;12.68;4.25;;;;;;;20.88;100.00;101374.34;4966360;28;20519;-76
2023/08/15 07:51:38;;;;;;;10.10;3.42;;;;;;;20.98;100.00;101377.59;4943604;28;20057;-77
2023/08/15 07:54:06;;;;;;;9.68;4.20;;;;;;;21.05;100.00;101387.22;4969078;28;20043;-77
2023/08/15 07:56:34;;;;;;;11.82;3.90;;;;;;;21.07;100.00;101381.81;4967524;28;20054;-77
2023/08/15 07:59:03;;;;;;;8.38;3.65;;;;;;;21.10;100.00;101385.28;4969433;28;20050;-77
2023/08/15 08:01:30;;;;;;;10.55;3.80;;;;;;;21.12;100.00;101390.59;4966672;28;20063;-77
2023/08/15 08:03:58;;;;;;;12.43;3.90;;;;;;;21.15;100.00;101394.06;4971138;28;20054;-77
2023/08/15 08:06:27;;;;;;;10.88;4.03;;;;;;;21.16;100.00;101394.91;4943820;28;20518;-77
2023/08/15 08:09:06;;;;;;;6.20;3.60;;;;;;;21.16;100.00;101393.09;4958689;28;20046;-77
2023/08/15 08:11:33;;;;;;;8.30;4.18;;;;;;;21.16;100.00;101397.59;4965791;28;20070;-77
2023/08/15 08:14:01;;;;;;;8.65;3.83;;;;;;;21.16;100.00;101400.28;4953732;28;20051;-77
2023/08/15 08:16:28;;;;;;;5.85;3.42;;;;;;;21.17;100.00;101396.66;4964677;28;20058;-77
2023/08/15 08:18:56;;;;;;;6.63;3.30;;;;;;;21.18;100.00;101406.47;4967384;28;20054;-77
2023/08/15 08:21:23;;;;;;;6.63;3.22;;;;;;;21.17;100.00;101407.38;4927050;28;20061;-76
2023/08/15 08:23:51;;;;;;;5.80;2.78;;;;;;;21.13;100.00;101408.41;4966678;28;20046;-77
2023/08/15 08:26:18;;;;;;;7.68;2.75;;;;;;;21.16;100.00;101411.88;4967296;28;20058;-77
2023/08/15 08:28:45;;;;;;;5.00;2.95;;;;;;;21.22;100.00;101408.09;4965965;28;20051;-78
2023/08/15 08:31:13;;;;;;;7.13;3.55;;;;;;;21.32;100.00;101422.09;4967567;28;20047;-77
2023/08/15 08:33:40;;;;;;;6.80;2.55;;;;;;;21.39;100.00;101424.50;4965472;28;20051;-77
2023/08/15 08:36:08;;;;;;;4.63;2.20;;;;;;;21.46;100.00;101427.03;4968262;28;20043;-77
2023/08/15 08:38:36;;;;;;;6.15;2.40;;;;;;;21.54;100.00;101439.25;4914940;28;20049;-77
2023/08/15 08:41:04;;;;;;;5.22;2.60;;;;;;;21.59;100.00;101437.31;4967907;28;20500;-77
2023/08/15 08:43:33;;;;;;;6.18;2.60;;;;;;;21.62;100.00;101441.69;4966836;28;20050;-78
2023/08/15 08:46:03;;;;;;;6.15;2.67;;;;;;;21.58;100.00;101440.91;4971509;28;20515;-77
2023/08/15 08:48:32;;;;;;;7.50;2.92;;;;;;;21.59;100.00;101441.81;4966269;28;20054;-78
2023/08/15 08:51:05;;;;;;;7.38;2.53;;;;;;;21.57;100.00;101444.53;4971346;28;20043;-78
2023/08/15 08:53:32;;;;;;;7.32;2.90;;;;;;;21.58;100.00;101442.72;4930277;28;20465;-77
2023/08/15 08:56:01;;;;;;;6.53;2.22;;;;;;;21.53;100.00;101444.66;4973467;28;20045;-76
2023/08/15 08:58:31;;;;;;;4.05;2.10;;;;;;;21.49;100.00;101451.94;4970880;28;20057;-77
2023/08/15 09:01:01;;;;;;;12.13;2.10;;;;;;;21.49;100.00;101448.38;4973900;28;20065;-77
2023/08/15 09:03:29;;;;;;;8.10;2.22;;;;;;;21.42;100.00;101451.22;4971033;28;20053;-77
2023/08/15 09:05:57;;;;;;;7.85;2.63;;;;;;;21.42;100.00;101434.28;4973677;28;20050;-77
2023/08/15 09:08:25;;;;;;;4.53;2.03;;;;;;;21.44;100.00;101443.19;4945665;28;20427;-77
2023/08/15 09:10:52;;;;;;;5.78;2.47;;;;;;;21.55;100.00;101438.34;4996059;28;20065;-77
2023/08/15 09:13:25;;;;;;;4.68;1.63;;;;;;;21.74;100.00;101437.72;4972432;28;20042;-77
2023/08/15 09:15:56;;;;;;;6.47;1.80;;;;;;;21.92;100.00;101437.06;4972131;28;20058;-76
2023/08/15 09:18:26;;;;;;;7.38;1.90;;;;;;;22.11;100.00;101439.13;4971863;28;20625;-77
2023/08/15 09:20:54;;;;;;;4.07;1.52;;;;;;;22.26;100.00;101443.97;4972783;28;20054;-76
2023/08/15 09:23:21;;;;;;;2.95;1.52;;;;;;;22.31;100.00;101443.81;4952667;28;20142;-78
2023/08/15 09:25:53;;;;;;;3.05;1.50;;;;;;;22.30;100.00;101440.22;4956792;28;20043;-77
2023/08/15 09:28:21;;;;;;;2.50;1.48;;;;;;;22.36;100.00;101452.56;4973017;28;20400;-76
2023/08/15 09:30:53;;;;;;;3.50;1.45;;;;;;;22.49;100.00;101436.88;4972132;28;20038;-77
2023/08/15 09:33:21;;;;;;;3.35;1.80;;;;;;;22.68;100.00;101439.75;4971784;28;20050;-77
2023/08/15 09:35:48;;;;;;;2.53;1.33;;;;;;;22.79;100.00;101440.19;4972675;28;20038;-77
2023/08/15 09:38:27;;;;;;;5.15;1.77;;;;;;;22.94;100.00;101447.66;4963638;28;20058;-76
2023/08/15 09:40:59;;;;;;;5.70;1.70;;;;;;;23.11;100.00;101448.84;4969259;28;20049;-77
2023/08/15 09:43:27;;;;;;;3.65;1.42;;;;;;;23.32;100.00;101442.59;4972116;28;20054;-77
2023/08/15 09:45:55;;;;;;;3.25;1.50;;;;;;;23.41;100.00;101456.63;4972766;28;20053;-77
2023/08/15 09:48:23;;;;;;;6.05;1.77;;;;;;;23.38;100.00;101457.59;4988418;28;20046;-76
2023/08/15 09:50:51;;;;;;;9.40;1.83;;;;;;;23.25;100.00;101461.72;4971330;28;20057;-77
2023/08/15 09:53:22;;;;;;;6.88;1.75;;;;;;;23.07;100.00;101466.06;4956273;28;20050;-77
2023/08/15 09:55:52;;;;;;;2.90;1.52;;;;;;;22.91;100.00;101469.31;4971645;28;20568;-77
2023/08/15 09:58:22;;;;;;;4.20;1.80;;;;;;;22.79;100.00;101472.44;4971571;28;20534;-78
2023/08/15 10:00:51;;;;;;;6.43;2.00;;;;;;;22.70;100.00;101470.09;4971284;28;20046;-78
2023/08/15 10:03:23;;;;;;;6.45;2.10;;;;;;;22.61;100.00;101475.81;4988553;28;20523;-77
2023/08/15 10:05:54;;;;;;;6.32;1.80;;;;;;;22.51;100.00;101478.88;4972169;28;20042;-77
2023/08/15 10:08:25;;;;;;;6.18;1.80;;;;;;;22.42;100.00;101478.31;4975617;28;20065;-76
2023/08/15 10:10:54;;;;;;;8.10;1.60;;;;;;;22.35;100.00;101485.72;4946773;28;20057;-77
2023/08/15 10:13:31;;;;;;;2.28;1.35;;;;;;;22.27;100.00;101490.47;4990443;28;20038;-76
2023/08/15 10:16:00;;;;;;;5.93;1.52;;;;;;;22.19;100.00;101486.22;4972150;28;20050;-77
2023/08/15 10:18:28;;;;;;;2.78;1.20;;;;;;;22.19;100.00;101488.03;4969515;28;20057;-76
2023/08/15 10:20:57;;;;;;;3.15;1.40;;;;;;;22.14;100.00;101490.88;4972663;28;20061;-77
2023/08/15 10:23:29;;;;;;;5.60;1.90;;;;;;;22.22;100.00;101495.09;4969413;28;20058;-76
2023/08/15 10:25:58;;;;;;;5.63;1.67;;;;;;;22.35;100.00;101496.47;4956752;28;20584;-77
2023/08/15 10:28:30;;;;;;;5.85;1.65;;;;;;;22.51;100.00;101497.66;4980132;28;20415;-77
2023/08/15 10:30:57;;;;;;;4.18;1.30;;;;;;;22.65;100.00;101499.84;4975320;28;20054;-77
2023/08/15 10:33:28;;;;;;;4.38;1.45;;;;;;;22.76;100.00;101503.00;4972024;28;20492;-77
2023/08/15 10:35:56;;;;;;;5.75;2.22;;;;;;;22.85;100.00;101507.13;4988233;28;20057;-77
2023/08/15 10:38:39;;;;;;;5.55;2.08;;;;;;;22.87;100.00;101504.41;4969110;28;20058;-77
2023/08/15 10:41:11;;;;;;;4.63;1.80;;;;;;;22.89;100.00;101507.91;4971498;28;20104;-76
2023/08/15 10:43:38;;;;;;;6.18;2.03;;;;;;;22.90;100.00;101515.03;4947378;28;20069;-77
2023/08/15 10:46:06;;;;;;;2.53;1.50;;;;;;;22.92;100.00;101511.34;4987798;28;20053;-77
2023/08/15 10:48:48;;;;;;;4.30;1.23;;;;;;;23.03;100.00;101510.97;4985865;28;20053;-77
2023/08/15 10:51:25;;;;;;;2.83;1.50;;;;;;;23.21;100.00;101513.88;4971063;28;20042;-76
2023/08/15 10:53:56;;;;;;;2.70;1.67;;;;;;;23.23;100.00;101512.00;4970913;28;20488;-77
2023/08/15 10:56:28;;;;;;;;;;;;;;;23.14;100.00;101513.25;4968763;28;20069;-76
2023/08/15 10:58:58;;;;;;;2.08;1.25;;;;;;;23.07;100.00;101517.13;4941050;28;19922;-76
2023/08/15 11:01:27;;;;;;;4.05;1.73;;;;;;;23.04;100.00;101520.78;4969300;28;20050;-77
2023/08/15 11:03:56;;;;;;;3.53;1.05;;;;;;;23.04;100.00;101523.47;4970111;28;20415;-76
2023/08/15 11:06:24;;;;;;;6.28;1.10;;;;;;;23.02;100.00;101521.75;4986668;28;20042;-77
2023/08/15 11:08:55;;;;;;;3.88;1.67;;;;;;;23.03;100.00;101526.22;4986000;28;20057;-77
2023/08/15 11:11:23;;;;;;;2.42;1.38;;;;;;;23.06;100.00;101523.41;4984236;28;20120;-77
2023/08/15 11:13:53;;;;;;;2.90;1.30;;;;;;;23.03;100.00;101526.22;4929375;28;20518;-77
2023/08/15 11:16:21;;;;;;;4.80;1.70;;;;;;;23.10;100.00;101527.72;4986572;28;20042;-77
2023/08/15 11:18:49;;;;;;;5.32;1.83;;;;;;;23.28;100.00;101532.41;4970771;28;20042;-77